createdAt,value
2016-04-20T08:27:49.566Z,17.76
2016-04-20T08:28:49.943Z,17.65
2016-04-20T08:29:49.993Z,17.78
2016-04-20T08:30:50.011Z,17.64
2016-04-20T08:31:50.107Z,17.63
2016-04-20T08:32:50.157Z,17.65
2016-04-20T08:33:50.191Z,17.63
2016-04-20T08:34:50.287Z,17.68
2016-04-20T08:35:50.259Z,17.68
2016-04-20T08:36:50.355Z,17.57
2016-04-20T08:37:50.389Z,17.6
2016-04-20T08:38:50.767Z,17.6
2016-04-20T08:39:50.504Z,17.65
2016-04-20T08:40:50.554Z,17.59
2016-04-20T08:41:50.571Z,17.64
2016-04-20T08:42:50.653Z,17.48
2016-04-20T08:43:50.702Z,17.6
2016-04-20T08:44:50.752Z,17.65
2016-04-20T08:45:50.786Z,17.54
2016-04-20T08:46:50.835Z,17.64
2016-04-20T08:47:50.901Z,17.67
2016-04-20T08:48:50.951Z,17.59
2016-04-20T08:49:51.093Z,17.65
2016-04-20T08:50:51.034Z,17.64
2016-04-20T08:51:51.098Z,17.65
2016-04-20T08:52:51.133Z,17.74
2016-04-20T08:53:51.183Z,17.71
2016-04-20T08:54:51.263Z,17.7
2016-04-20T08:55:51.297Z,17.74
2016-04-20T08:56:51.330Z,17.72
2016-04-20T08:57:51.256Z,17.76
2016-04-20T08:58:51.289Z,17.79
2016-04-20T08:59:51.527Z,17.78
2016-04-20T09:00:51.530Z,17.71
2016-04-20T09:01:51.579Z,17.76
2016-04-20T09:02:51.675Z,17.7
2016-04-20T09:03:51.880Z,17.67
2016-04-20T09:04:52.165Z,17.65
2016-04-20T09:05:51.823Z,17.7
2016-04-20T09:06:51.858Z,17.74
2016-04-20T09:07:51.891Z,17.78
2016-04-20T09:08:51.973Z,17.71
2016-04-20T09:09:52.022Z,17.71
2016-04-20T09:10:52.057Z,17.74
2016-04-20T09:11:52.121Z,17.63
2016-04-20T09:12:52.140Z,17.57
2016-04-20T09:13:52.237Z,17.57
2016-04-20T09:14:52.254Z,17.57
2016-04-20T09:15:52.288Z,17.65
2016-04-20T09:16:52.415Z,17.59
2016-04-20T09:17:52.418Z,17.67
2016-04-20T09:18:52.437Z,17.67
2016-04-20T09:19:52.784Z,17.59
2016-04-20T09:20:52.567Z,17.64
2016-04-20T09:21:52.623Z,17.63
2016-04-20T09:22:52.681Z,17.59
2016-04-20T09:23:52.731Z,17.52
2016-04-20T09:24:52.765Z,17.46
2016-04-20T09:25:52.799Z,17.56
2016-04-20T09:26:52.879Z,17.45
2016-04-20T09:27:52.913Z,17.59
2016-04-20T09:28:54.197Z,17.49
2016-04-20T09:29:53.044Z,17.63
2016-04-20T09:30:53.077Z,17.65
2016-04-20T09:31:53.112Z,17.63
2016-04-20T09:32:53.207Z,17.7
2016-04-20T09:33:53.242Z,17.64
2016-04-20T09:34:53.401Z,17.59
2016-04-20T09:35:53.325Z,17.65
2016-04-20T09:36:53.390Z,17.65
2016-04-20T09:37:53.408Z,17.63
2016-04-20T09:38:53.459Z,17.65
2016-04-20T09:39:53.508Z,17.68
2016-04-20T09:40:53.589Z,17.74
2016-04-20T09:41:53.639Z,17.74
2016-04-20T09:42:53.656Z,17.78
2016-04-20T09:43:53.737Z,17.78
2016-04-20T09:44:53.786Z,17.71
2016-04-20T09:45:53.821Z,17.79
2016-04-20T09:46:53.902Z,17.85
2016-04-20T09:47:53.952Z,17.83
2016-04-20T09:48:53.970Z,17.85
2016-04-20T09:49:54.113Z,17.85
2016-04-20T09:50:54.069Z,17.85
2016-04-20T09:51:54.149Z,17.85
2016-04-20T09:52:54.215Z,17.8
2016-04-20T09:53:54.233Z,17.8
2016-04-20T09:54:54.299Z,17.79
2016-04-20T09:55:54.363Z,17.82
2016-04-20T09:56:54.366Z,17.8
2016-04-20T09:57:54.432Z,17.82
2016-04-20T09:58:54.496Z,17.9
2016-04-20T09:59:54.515Z,17.79
2016-04-20T10:00:54.767Z,17.8
2016-04-20T10:01:54.645Z,17.79
2016-04-20T10:02:54.679Z,17.74
2016-04-20T10:03:54.759Z,17.76
2016-04-20T10:04:54.668Z,17.8
2016-04-20T10:05:54.828Z,17.79
2016-04-20T10:06:54.923Z,17.78
2016-04-20T10:07:54.942Z,17.82
2016-04-20T10:08:54.992Z,17.78
2016-04-20T10:09:55.073Z,17.78
2016-04-20T10:10:55.107Z,17.78
2016-04-20T10:11:54.984Z,17.82
2016-04-20T10:12:55.065Z,17.8
2016-04-20T10:13:55.287Z,17.82
2016-04-20T10:14:55.306Z,17.85
2016-04-20T10:15:55.355Z,17.76
2016-04-20T10:16:55.514Z,17.78
2016-04-20T10:17:55.470Z,17.74
2016-04-20T10:18:55.488Z,17.74
2016-04-20T10:19:55.569Z,17.82
2016-04-20T10:20:55.619Z,17.87
2016-04-20T10:21:55.652Z,17.74
2016-04-20T10:22:55.686Z,17.76
2016-04-20T10:23:55.783Z,17.78
2016-04-20T10:24:55.816Z,17.78
2016-04-20T10:25:55.850Z,17.8
2016-04-20T10:26:55.931Z,17.8
2016-04-20T10:27:55.980Z,17.8
2016-04-20T10:28:55.999Z,17.83
2016-04-20T10:29:56.611Z,17.85
2016-04-20T10:30:56.113Z,17.79
2016-04-20T10:31:56.179Z,17.79
2016-04-20T10:32:56.229Z,17.74
2016-04-20T10:33:56.247Z,17.78
2016-04-20T10:34:56.329Z,17.85
2016-04-20T10:35:56.393Z,17.78
2016-04-20T10:36:56.395Z,17.83
2016-04-20T10:37:56.461Z,17.8
2016-04-20T10:38:56.542Z,17.79
2016-04-20T10:39:56.559Z,17.85
2016-04-20T10:40:56.610Z,17.85
2016-04-20T10:41:56.690Z,17.85
2016-04-20T10:42:56.725Z,17.78
2016-04-20T10:43:56.773Z,17.74
2016-04-20T10:44:56.808Z,17.74
2016-04-20T10:45:56.873Z,17.76
2016-04-20T10:46:56.939Z,17.78
2016-04-20T10:47:56.956Z,17.79
2016-04-20T10:48:57.006Z,17.79
2016-04-20T10:49:57.086Z,17.83
2016-04-20T10:50:57.152Z,17.8
2016-04-20T10:51:57.170Z,17.78
2016-04-20T10:52:57.251Z,17.85
2016-04-20T10:53:57.300Z,17.78
2016-04-20T10:54:57.335Z,17.74
2016-04-20T10:55:57.369Z,17.82
2016-04-20T10:56:57.433Z,17.83
2016-04-20T10:57:57.499Z,17.79
2016-04-20T10:58:57.532Z,17.87
2016-04-20T10:59:57.566Z,17.74
2016-04-20T11:00:57.648Z,17.79
2016-04-20T11:01:57.682Z,17.79
2016-04-20T11:02:57.716Z,17.78
2016-04-20T11:03:57.812Z,17.8
2016-04-20T11:04:57.846Z,17.78
2016-04-20T11:05:57.879Z,17.85
2016-04-20T11:06:57.960Z,17.85
2016-04-20T11:07:58.010Z,17.82
2016-04-20T11:08:58.029Z,17.82
2016-04-20T11:09:58.078Z,17.78
2016-04-20T11:10:58.159Z,17.71
2016-04-20T11:11:58.193Z,17.79
2016-04-20T11:12:58.243Z,17.78
2016-04-20T11:13:58.323Z,17.76
2016-04-20T11:14:58.357Z,17.8
2016-04-20T11:15:58.391Z,17.82
2016-04-20T11:16:58.487Z,17.79
2016-04-20T11:17:58.522Z,17.71
2016-04-20T11:18:58.540Z,17.74
2016-04-20T11:19:58.606Z,17.79
2016-04-20T11:20:58.639Z,17.72
2016-04-20T11:21:58.736Z,17.74
2016-04-20T11:22:58.753Z,17.78
2016-04-20T11:23:58.631Z,17.74
2016-04-20T11:24:58.869Z,17.76
2016-04-20T11:25:58.918Z,17.67
2016-04-20T11:26:58.936Z,17.79
2016-04-20T11:27:59.016Z,17.72
2016-04-20T11:28:59.066Z,17.64
2016-04-20T11:29:59.101Z,17.63
2016-04-20T11:30:59.182Z,17.76
2016-04-20T11:31:59.232Z,17.64
2016-04-20T11:32:59.250Z,17.57
2016-04-20T11:33:59.315Z,17.64
2016-04-20T11:34:59.349Z,17.6
2016-04-20T11:35:59.445Z,17.6
2016-04-20T11:36:59.479Z,17.57
2016-04-20T11:37:59.498Z,17.57
2016-04-20T11:38:59.579Z,17.64
2016-04-20T11:39:59.628Z,17.6
2016-04-20T11:40:59.662Z,17.74
2016-04-20T11:41:59.711Z,17.64
2016-04-20T11:42:59.792Z,17.68
2016-04-20T11:43:59.809Z,17.59
2016-04-20T11:44:59.876Z,17.57
2016-04-20T11:45:59.925Z,17.65
2016-04-20T11:46:59.958Z,17.57
2016-04-20T11:48:00.025Z,17.6
2016-04-20T11:49:00.058Z,17.57
2016-04-20T11:50:00.108Z,17.64
2016-04-20T11:51:00.189Z,17.6
2016-04-20T11:52:00.206Z,17.6
2016-04-20T11:53:00.256Z,17.67
2016-04-20T11:54:00.337Z,17.67
2016-04-20T11:55:00.386Z,17.67
2016-04-20T11:56:00.421Z,17.64
2016-04-20T11:57:00.485Z,17.65
2016-04-20T11:58:00.535Z,17.68
2016-04-20T11:59:00.570Z,17.63
2016-04-20T12:00:00.619Z,17.63
2016-04-20T12:01:00.669Z,17.64
2016-04-20T12:02:00.749Z,17.64
2016-04-20T12:03:00.782Z,17.6
2016-04-20T12:04:00.832Z,17.56
2016-04-20T12:05:00.899Z,17.56
2016-04-20T12:06:00.948Z,17.56
2016-04-20T12:07:00.966Z,17.64
2016-04-20T12:08:01.046Z,17.59
2016-04-20T12:09:01.112Z,17.6
2016-04-20T12:10:01.129Z,17.54
2016-04-20T12:11:01.195Z,17.59
2016-04-20T12:12:01.215Z,17.6
2016-04-20T12:13:01.310Z,17.64
2016-04-20T12:14:01.345Z,17.63
2016-04-20T12:15:01.378Z,17.63
2016-04-20T12:16:01.458Z,17.51
2016-04-20T12:17:01.509Z,17.65
2016-04-20T12:18:01.527Z,17.45
2016-04-20T12:19:01.608Z,17.52
2016-04-20T12:20:01.657Z,17.46
2016-04-20T12:21:01.675Z,17.6
2016-04-20T12:22:01.772Z,17.57
2016-04-20T12:23:01.822Z,17.6
2016-04-20T12:24:01.824Z,17.48
2016-04-20T12:25:01.905Z,17.51
2016-04-20T12:26:01.938Z,17.46
2016-04-20T12:27:02.004Z,17.51
2016-04-20T12:28:02.069Z,17.46
2016-04-20T12:29:02.088Z,17.6
2016-04-20T12:30:02.152Z,17.51
2016-04-20T12:31:02.250Z,17.56
2016-04-20T12:32:02.251Z,17.51
2016-04-20T12:33:02.285Z,17.45
2016-04-20T12:34:02.366Z,17.48
2016-04-20T12:35:02.401Z,17.52
2016-04-20T12:36:02.435Z,17.52
2016-04-20T12:37:02.516Z,17.54
2016-04-20T12:38:02.549Z,17.51
2016-04-20T12:39:02.630Z,17.51
2016-04-20T12:40:02.649Z,17.51
2016-04-20T12:41:02.699Z,17.45
2016-04-20T12:42:02.779Z,17.48
2016-04-20T12:43:02.812Z,17.51
2016-04-20T12:44:02.862Z,17.51
2016-04-20T12:45:02.928Z,17.51
2016-04-20T12:46:02.977Z,17.44
2016-04-20T12:47:03.012Z,17.46
2016-04-20T12:48:03.076Z,17.48
2016-04-20T12:49:03.126Z,17.46
2016-04-20T12:50:03.144Z,17.51
2016-04-20T12:51:03.225Z,17.51
2016-04-20T12:52:03.275Z,17.48
2016-04-20T12:53:03.292Z,17.39
2016-04-20T12:54:03.373Z,17.52
2016-04-20T12:55:03.439Z,17.54
2016-04-20T12:56:03.442Z,17.46
2016-04-20T12:57:03.506Z,17.49
2016-04-20T12:58:03.572Z,17.44
2016-04-20T12:59:03.606Z,17.49
2016-04-20T13:00:03.655Z,17.44
2016-04-20T13:01:03.720Z,17.54
2016-04-20T13:02:03.769Z,17.48
2016-04-20T13:03:03.820Z,17.46
2016-04-20T13:04:03.869Z,17.48
2016-04-20T13:05:03.903Z,17.51
2016-04-20T13:06:03.999Z,17.51
2016-04-20T13:07:04.033Z,17.49
2016-04-20T13:08:04.068Z,17.48
2016-04-20T13:09:04.149Z,17.44
2016-04-20T13:10:04.198Z,17.48
2016-04-20T13:11:04.215Z,17.44
2016-04-20T13:12:04.281Z,17.46
2016-04-20T13:13:04.674Z,17.39
2016-04-20T13:14:04.881Z,17.45
2016-04-20T13:15:04.415Z,17.39
2016-04-20T13:16:04.464Z,17.46
2016-04-20T13:17:04.545Z,17.49
2016-04-20T13:18:04.595Z,17.44
2016-04-20T13:19:04.612Z,17.42
2016-04-20T13:20:04.693Z,17.38
2016-04-20T13:21:04.743Z,17.34
2016-04-20T13:22:04.761Z,17.45
2016-04-20T13:23:04.826Z,17.51
2016-04-20T13:24:04.891Z,17.39
2016-04-20T13:25:04.925Z,17.45
2016-04-20T13:26:04.975Z,17.36
2016-04-20T13:27:05.041Z,17.42
2016-04-20T13:28:05.075Z,17.42
2016-04-20T13:29:05.155Z,17.44
2016-04-20T13:30:05.174Z,17.44
2016-04-20T13:31:05.254Z,17.42
2016-04-20T13:32:05.305Z,17.44
2016-04-20T13:33:05.322Z,17.39
2016-04-20T13:34:05.403Z,17.46
2016-04-20T13:35:05.452Z,17.42
2016-04-20T13:36:05.486Z,17.34
2016-04-20T13:37:05.535Z,17.45
2016-04-20T13:38:05.602Z,17.42
2016-04-20T13:39:05.635Z,17.48
2016-04-20T13:40:05.685Z,17.34
2016-04-20T13:41:05.766Z,17.39
2016-04-20T13:42:05.784Z,17.42
2016-04-20T13:43:05.864Z,17.29
2016-04-20T13:44:05.899Z,17.45
2016-04-20T13:45:05.932Z,17.42
2016-04-20T13:46:06.013Z,17.42
2016-04-20T13:47:06.047Z,17.39
2016-04-20T13:48:06.082Z,17.36
2016-04-20T13:49:06.162Z,17.34
2016-04-20T13:50:06.212Z,17.36
2016-04-20T13:51:06.136Z,17.41
2016-04-20T13:52:06.312Z,17.48
2016-04-20T13:53:06.361Z,17.36
2016-04-20T13:54:06.425Z,17.44
2016-04-20T13:55:06.428Z,17.42
2016-04-20T13:56:06.478Z,17.36
2016-04-20T13:57:06.574Z,17.42
2016-04-20T13:58:06.609Z,17.34
2016-04-20T13:59:06.627Z,17.36
2016-04-20T14:00:06.739Z,17.36
2016-04-20T14:01:06.758Z,17.36
2016-04-20T14:02:06.791Z,17.46
2016-04-20T14:03:06.856Z,17.44
2016-04-20T14:04:06.921Z,17.34
2016-04-20T14:05:09.424Z,17.41
2016-04-20T14:06:07.113Z,17.31
2016-04-20T14:07:07.039Z,17.36
2016-04-20T14:08:07.119Z,17.45
2016-04-20T14:09:07.169Z,17.44
2016-04-20T14:10:07.203Z,17.39
2016-04-20T14:11:07.268Z,17.39
2016-04-20T14:12:07.318Z,17.41
2016-04-20T14:13:07.352Z,17.45
2016-04-20T14:14:07.418Z,17.42
2016-04-20T14:15:07.482Z,17.42
2016-04-20T14:16:07.500Z,17.45
2016-04-20T14:17:07.550Z,17.45
2016-04-20T14:18:07.631Z,17.45
2016-04-20T14:19:07.649Z,17.42
2016-04-20T14:20:07.730Z,17.42
2016-04-20T14:21:07.748Z,17.48
2016-04-20T14:22:07.643Z,17.42
2016-04-20T14:23:07.879Z,17.45
2016-04-20T14:24:07.913Z,17.42
2016-04-20T14:25:07.948Z,17.45
2016-04-20T14:26:08.044Z,17.36
2016-04-20T14:27:08.078Z,17.42
2016-04-20T14:28:08.112Z,17.46
2016-04-20T14:29:08.177Z,17.45
2016-04-20T14:30:08.243Z,17.38
2016-04-20T14:31:08.260Z,17.42
2016-04-20T14:32:08.341Z,17.42
2016-04-20T14:33:08.406Z,17.44
2016-04-20T14:34:08.409Z,17.39
2016-04-20T14:35:08.490Z,17.41
2016-04-20T14:36:08.555Z,17.44
2016-04-20T14:37:08.573Z,17.42
2016-04-20T14:38:08.654Z,17.42
2016-04-20T14:39:08.704Z,17.42
2016-04-20T14:40:08.706Z,17.34
2016-04-20T14:41:08.772Z,17.41
2016-04-20T14:42:08.837Z,17.36
2016-04-20T14:43:08.871Z,17.39
2016-04-20T14:44:08.936Z,17.42
2016-04-20T14:45:08.986Z,17.42
2016-04-20T14:46:09.020Z,17.39
2016-04-20T14:47:09.100Z,17.48
2016-04-20T14:48:10.806Z,17.45
2016-04-20T14:49:09.153Z,17.46
2016-04-20T14:50:09.249Z,17.39
2016-04-20T14:51:09.424Z,17.36
2016-04-20T14:52:09.316Z,17.42
2016-04-20T14:53:09.398Z,17.42
2016-04-20T14:54:09.447Z,17.39
2016-04-20T14:55:09.466Z,17.33
2016-04-20T14:56:09.546Z,17.46
2016-04-20T14:57:09.612Z,17.44
2016-04-20T14:58:09.630Z,17.48
2016-04-20T14:59:09.711Z,17.44
2016-04-20T15:00:09.729Z,17.41
2016-04-20T15:01:09.795Z,17.45
2016-04-20T15:02:09.843Z,17.45
2016-04-20T15:03:09.878Z,17.38
2016-04-20T15:04:09.942Z,17.46
2016-04-20T15:05:10.039Z,17.46
2016-04-20T15:06:10.026Z,17.34
2016-04-20T15:07:10.092Z,17.49
2016-04-20T15:08:10.157Z,17.42
2016-04-20T15:09:10.176Z,17.44
2016-04-20T15:10:10.225Z,17.46
2016-04-20T15:11:10.290Z,17.45
2016-04-20T15:12:10.370Z,17.48
2016-04-20T15:13:10.405Z,17.42
2016-04-20T15:14:10.422Z,17.41
2016-04-20T15:15:10.503Z,17.33
2016-04-20T15:16:10.553Z,17.42
2016-04-20T15:17:10.571Z,17.42
2016-04-20T15:18:10.652Z,17.46
2016-04-20T15:19:10.718Z,17.42
2016-04-20T15:20:10.721Z,17.36
2016-04-20T15:21:10.801Z,17.33
2016-04-20T15:22:10.851Z,17.34
2016-04-20T15:23:10.885Z,17.44
2016-04-20T15:24:10.934Z,17.45
2016-04-20T15:25:11.015Z,17.42
2016-04-20T15:26:11.049Z,17.42
2016-04-20T15:27:11.098Z,17.49
2016-04-20T15:28:11.164Z,17.33
2016-04-20T15:29:11.213Z,17.45
2016-04-20T15:30:11.232Z,17.45
2016-04-20T15:31:11.296Z,17.45
2016-04-20T15:32:11.362Z,17.41
2016-04-20T15:33:11.381Z,17.45
2016-04-20T15:34:11.429Z,17.41
2016-04-20T15:35:11.526Z,17.46
2016-04-20T15:36:11.564Z,17.41
2016-04-20T15:37:11.630Z,17.36
2016-04-20T15:38:11.648Z,17.38
2016-04-20T15:39:11.713Z,17.45
2016-04-20T15:40:11.779Z,17.48
2016-04-20T15:41:11.797Z,17.46
2016-04-20T15:42:11.863Z,17.48
2016-04-20T15:43:11.928Z,17.42
2016-04-20T15:44:11.962Z,17.38
2016-04-20T15:45:11.996Z,17.46
2016-04-20T15:46:12.061Z,17.44
2016-04-20T15:47:12.095Z,17.45
2016-04-20T15:48:12.145Z,17.38
2016-04-20T15:49:12.225Z,17.48
2016-04-20T15:50:12.260Z,17.51
2016-04-20T15:51:12.324Z,17.42
2016-04-20T15:52:12.343Z,17.41
2016-04-20T15:53:12.393Z,17.48
2016-04-20T15:54:12.473Z,17.41
2016-04-20T15:55:12.523Z,17.41
2016-04-20T15:56:12.540Z,17.41
2016-04-20T15:57:12.621Z,17.52
2016-04-20T15:58:12.708Z,17.41
2016-04-20T15:59:12.783Z,17.48
2016-04-20T16:00:12.907Z,17.45
2016-04-20T16:01:12.997Z,17.46
2016-04-20T16:02:13.073Z,17.45
2016-04-20T16:03:13.145Z,17.42
2016-04-20T16:04:13.211Z,17.54
2016-04-20T16:06:53.801Z,17.44
2016-04-20T16:07:53.800Z,17.39
2016-04-20T16:08:53.886Z,17.45
2016-04-20T16:09:53.958Z,17.42
2016-04-20T16:10:53.965Z,17.41
2016-04-20T16:11:54.021Z,17.39
2016-04-20T16:12:54.089Z,17.45
2016-04-20T16:13:54.125Z,17.42
2016-04-20T16:14:54.193Z,17.45
2016-04-20T16:15:54.276Z,17.44
2016-04-20T16:16:54.295Z,17.46
2016-04-20T16:17:54.347Z,17.52
2016-04-20T16:18:54.429Z,17.48
2016-04-20T16:19:54.432Z,17.46
2016-04-20T16:20:54.498Z,17.45
2016-04-20T16:21:54.579Z,17.44
2016-04-20T16:22:54.615Z,17.42
2016-04-20T16:23:54.648Z,17.44
2016-04-20T16:24:54.729Z,17.45
2016-04-20T16:25:54.779Z,17.54
2016-04-20T16:26:54.797Z,17.48
2016-04-20T16:27:54.879Z,17.48
2016-04-20T16:28:54.897Z,17.45
2016-04-20T16:29:54.978Z,17.41
2016-04-20T16:30:55.028Z,17.48
2016-04-20T16:31:55.046Z,17.39
2016-04-20T16:32:55.174Z,17.54
2016-04-20T16:33:55.191Z,17.39
2016-04-20T16:34:55.210Z,17.48
2016-04-20T16:35:55.260Z,17.54
2016-04-20T16:36:55.324Z,17.51
2016-04-20T16:37:55.359Z,17.44
2016-04-20T16:38:55.424Z,17.49
2016-04-20T16:39:55.474Z,17.51
2016-04-20T16:40:55.507Z,17.49
2016-04-20T16:41:55.588Z,17.48
2016-04-20T16:42:55.607Z,17.56
2016-04-20T16:43:55.687Z,17.48
2016-04-20T16:44:55.737Z,17.65
2016-04-20T16:45:55.756Z,17.44
2016-04-20T16:46:55.805Z,17.6
2016-04-20T16:47:55.901Z,17.6
2016-04-20T16:48:55.920Z,17.65
2016-04-20T16:49:55.954Z,17.64
2016-04-20T16:50:56.051Z,17.6
2016-04-20T16:51:56.084Z,17.65
2016-04-20T16:52:56.118Z,17.63
2016-04-20T16:53:56.199Z,17.56
2016-04-20T16:54:56.233Z,17.65
2016-04-20T16:55:56.298Z,17.65
2016-04-20T16:56:55.566Z,17.59
2016-04-20T16:57:56.366Z,17.68
2016-04-20T16:58:56.431Z,17.76
2016-04-20T16:59:56.466Z,17.71
2016-04-20T17:00:56.514Z,17.74
2016-04-20T17:01:56.596Z,17.79
2016-04-20T17:02:56.660Z,17.79
2016-04-20T17:03:56.663Z,17.79
2016-04-20T17:04:56.744Z,17.83
2016-04-20T17:05:56.810Z,17.79
2016-04-20T17:06:56.827Z,17.78
2016-04-20T17:07:56.908Z,17.74
2016-04-20T17:08:56.943Z,17.79
2016-04-20T17:09:57.007Z,17.85
2016-04-20T17:10:57.041Z,17.76
2016-04-20T17:11:57.076Z,17.8
2016-04-20T17:12:57.157Z,17.78
2016-04-20T17:13:57.221Z,17.8
2016-04-20T17:14:57.224Z,17.83
2016-04-20T17:15:57.290Z,17.89
2016-04-20T17:16:57.340Z,17.76
2016-04-20T17:17:57.373Z,17.8
2016-04-20T17:18:57.422Z,17.89
2016-04-20T17:19:57.487Z,17.8
2016-04-20T17:20:57.553Z,17.78
2016-04-20T17:21:57.603Z,17.79
2016-04-20T17:22:57.637Z,17.79
2016-04-20T17:23:57.701Z,17.8
2016-04-20T17:24:57.783Z,17.76
2016-04-20T17:25:57.786Z,17.79
2016-04-20T17:26:57.850Z,17.74
2016-04-20T17:27:57.930Z,17.76
2016-04-20T17:28:57.183Z,17.71
2016-04-20T17:29:57.984Z,17.83
2016-04-20T17:30:58.064Z,17.85
2016-04-20T17:31:58.097Z,17.83
2016-04-20T17:32:58.180Z,17.79
2016-04-20T17:33:58.213Z,17.79
2016-04-20T17:34:58.263Z,17.8
2016-04-20T17:35:58.344Z,17.86
2016-04-20T17:36:58.361Z,17.8
2016-04-20T17:37:58.427Z,17.86
2016-04-20T17:38:58.476Z,17.8
2016-04-20T17:39:58.510Z,17.74
2016-04-20T17:40:58.544Z,17.82
2016-04-20T17:41:58.641Z,17.78
2016-04-20T17:42:58.660Z,17.76
2016-04-20T17:43:58.537Z,17.83
2016-04-20T17:44:58.790Z,17.72
2016-04-20T17:45:58.793Z,17.85
2016-04-20T17:46:58.888Z,17.83
2016-04-20T17:47:58.923Z,17.8
2016-04-20T17:48:58.956Z,17.8
2016-04-20T17:49:59.038Z,17.76
2016-04-20T17:50:59.071Z,17.79
2016-04-20T17:51:59.137Z,17.74
2016-04-20T17:52:59.201Z,17.76
2016-04-20T17:54:04.195Z,17.8
2016-04-20T17:54:59.244Z,17.78
2016-04-20T17:55:59.325Z,17.78
2016-04-20T17:56:59.390Z,17.76
2016-04-20T17:57:59.424Z,17.72
2016-04-20T17:58:59.473Z,17.79
2016-04-20T17:59:59.554Z,17.72
2016-04-20T18:00:59.572Z,17.76
2016-04-20T18:01:59.622Z,17.74
2016-04-20T18:02:59.687Z,17.82
2016-04-20T18:03:59.721Z,17.8
2016-04-20T18:04:59.771Z,17.76
2016-04-20T18:05:59.836Z,17.79
2016-04-20T18:06:59.728Z,17.82
2016-04-20T18:07:59.917Z,17.78
2016-04-20T18:08:59.999Z,17.8
2016-04-20T18:10:00.048Z,17.83
2016-04-20T18:11:00.113Z,17.83
2016-04-20T18:12:00.132Z,17.8
2016-04-20T18:13:00.166Z,17.8
2016-04-20T18:14:00.246Z,17.83
2016-04-20T18:15:00.296Z,17.76
2016-04-20T18:16:00.330Z,17.79
2016-04-20T18:17:00.442Z,17.9
2016-04-20T18:18:00.465Z,17.78
2016-04-20T18:19:00.467Z,17.79
2016-04-20T18:20:00.531Z,17.79
2016-04-20T18:21:00.613Z,17.83
2016-04-20T18:22:00.401Z,17.78
2016-04-20T18:23:00.701Z,17.82
2016-04-20T18:24:00.751Z,17.78
2016-04-20T18:25:00.800Z,17.8
2016-04-20T18:26:00.865Z,17.83
2016-04-20T18:27:00.884Z,17.82
2016-04-20T18:28:00.949Z,17.78
2016-04-20T18:29:00.999Z,17.79
2016-04-20T18:30:01.033Z,17.8
2016-04-20T18:31:01.082Z,17.8
2016-04-20T18:32:00.413Z,17.83
2016-04-20T18:33:01.181Z,17.78
2016-04-20T18:34:01.230Z,17.83
2016-04-20T18:35:01.327Z,17.76
2016-04-20T18:36:01.361Z,17.79
2016-04-20T18:37:01.286Z,17.8
2016-04-20T18:38:01.444Z,17.78
2016-04-20T18:39:01.510Z,17.78
2016-04-20T18:40:01.575Z,17.85
2016-04-20T18:41:01.578Z,17.82
2016-04-20T18:42:01.659Z,17.87
2016-04-20T18:43:01.708Z,17.79
2016-04-20T18:44:01.757Z,17.83
2016-04-20T18:45:01.792Z,17.76
2016-04-20T18:46:01.872Z,17.74
2016-04-20T18:47:01.907Z,17.74
2016-04-20T18:48:01.815Z,17.8
2016-04-20T18:49:01.896Z,17.79
2016-04-20T18:50:02.055Z,17.79
2016-04-20T18:51:02.120Z,17.83
2016-04-20T18:52:02.169Z,17.85
2016-04-20T18:53:02.204Z,17.79
2016-04-20T18:54:02.284Z,17.78
2016-04-20T18:55:02.319Z,17.83
2016-04-20T18:56:02.353Z,17.8
2016-04-20T18:57:02.449Z,17.85
2016-04-20T18:58:02.483Z,17.76
2016-04-20T18:59:02.517Z,17.85
2016-04-20T19:00:02.582Z,17.76
2016-04-20T19:01:02.648Z,17.85
2016-04-20T19:02:02.666Z,17.79
2016-04-20T19:03:02.746Z,17.85
2016-04-20T19:04:02.764Z,17.79
2016-04-20T19:05:02.846Z,17.78
2016-04-20T19:06:02.895Z,17.8
2016-04-20T19:07:02.633Z,17.82
2016-04-20T19:08:02.978Z,17.8
2016-04-20T19:09:03.027Z,17.74
2016-04-20T19:10:03.062Z,17.86
2016-04-20T19:11:03.127Z,17.85
2016-04-20T19:12:03.192Z,17.83
2016-04-20T19:13:03.243Z,17.83
2016-04-20T19:14:03.276Z,17.78
2016-04-20T19:15:03.341Z,17.82
2016-04-20T19:16:03.391Z,17.86
2016-04-20T19:17:03.440Z,17.82
2016-04-20T19:18:03.489Z,17.79
2016-04-20T19:19:03.523Z,17.87
2016-04-20T19:20:03.604Z,17.83
2016-04-20T19:21:03.467Z,17.83
2016-04-20T19:22:03.673Z,17.79
2016-04-20T19:23:03.753Z,17.82
2016-04-20T19:24:03.787Z,17.86
2016-04-20T19:25:03.836Z,17.85
2016-04-20T19:26:03.902Z,17.8
2016-04-20T19:27:03.967Z,17.76
2016-04-20T19:28:04.001Z,17.82
2016-04-20T19:29:04.019Z,17.83
2016-04-20T19:30:03.928Z,17.8
2016-04-20T19:31:04.166Z,17.85
2016-04-20T19:32:04.183Z,17.76
2016-04-20T19:33:04.234Z,17.72
2016-04-20T19:34:04.314Z,17.78
2016-04-20T19:35:04.347Z,17.71
2016-04-20T19:36:04.382Z,17.78
2016-04-20T19:37:04.463Z,17.82
2016-04-20T19:38:04.512Z,17.85
2016-04-20T19:39:04.563Z,17.76
2016-04-20T19:40:04.611Z,17.76
2016-04-20T19:41:04.661Z,17.82
2016-04-20T19:42:04.680Z,17.78
2016-04-20T19:43:04.744Z,17.76
2016-04-20T19:44:04.810Z,17.76
2016-04-20T19:45:04.843Z,17.74
2016-04-20T19:46:04.893Z,17.8
2016-04-20T19:47:04.974Z,17.76
2016-04-20T19:48:05.024Z,17.82
2016-04-20T19:49:05.057Z,17.74
2016-04-20T19:50:05.123Z,17.85
2016-04-20T19:51:05.173Z,17.79
2016-04-20T19:52:05.206Z,17.86
2016-04-20T19:53:05.271Z,17.85
2016-04-20T19:54:05.289Z,17.8
2016-04-20T19:55:05.370Z,17.78
2016-04-20T19:56:05.404Z,17.82
2016-04-20T19:57:05.454Z,17.79
2016-04-20T19:58:05.519Z,17.8
2016-04-20T19:59:05.569Z,17.76
2016-04-20T20:00:05.603Z,17.78
2016-04-20T20:01:05.684Z,17.76
2016-04-20T20:02:05.733Z,17.82
2016-04-20T20:03:05.767Z,17.82
2016-04-20T20:04:05.832Z,17.86
2016-04-20T20:05:05.883Z,17.86
2016-04-20T20:06:05.900Z,17.82
2016-04-20T20:07:05.966Z,17.82
2016-04-20T20:08:06.015Z,17.72
2016-04-20T20:09:06.080Z,17.79
2016-04-20T20:10:06.145Z,17.83
2016-04-20T20:11:06.163Z,17.72
2016-04-20T20:12:06.230Z,17.79
2016-04-20T20:13:06.293Z,17.83
2016-04-20T20:14:06.312Z,17.79
2016-04-20T20:15:06.393Z,17.85
2016-04-20T20:16:06.474Z,17.78
2016-04-20T20:17:06.461Z,17.78
2016-04-20T20:18:06.526Z,17.83
2016-04-20T20:19:06.607Z,17.8
2016-04-20T20:20:06.626Z,17.79
2016-04-20T20:21:06.690Z,17.82
2016-04-20T20:22:06.578Z,17.8
2016-04-20T20:23:06.620Z,17.8
2016-04-20T20:24:06.842Z,17.79
2016-04-20T20:25:06.875Z,17.82
2016-04-20T20:26:06.925Z,17.79
2016-04-20T20:27:07.005Z,17.8
2016-04-20T20:28:07.056Z,17.82
2016-04-20T20:29:07.089Z,17.82
2016-04-20T20:30:07.154Z,17.78
2016-04-20T20:31:07.205Z,17.76
2016-04-20T20:32:07.253Z,17.79
2016-04-20T20:33:07.272Z,17.83
2016-04-20T20:34:07.321Z,17.79
2016-04-20T20:35:07.402Z,17.74
2016-04-20T20:36:07.436Z,17.67
2016-04-20T20:37:07.470Z,17.68
2016-04-20T20:38:07.552Z,17.72
2016-04-20T20:39:07.601Z,17.72
2016-04-20T20:40:07.634Z,17.79
2016-04-20T20:41:07.715Z,17.74
2016-04-20T20:42:07.765Z,17.72
2016-04-20T20:43:07.782Z,17.78
2016-04-20T20:44:07.879Z,17.78
2016-04-20T20:45:07.882Z,17.8
2016-04-20T20:46:07.962Z,17.78
2016-04-20T20:47:08.029Z,17.79
2016-04-20T20:48:08.046Z,17.83
2016-04-20T20:49:08.111Z,17.86
2016-04-20T20:50:08.177Z,17.86
2016-04-20T20:51:08.195Z,17.82
2016-04-20T20:52:08.260Z,17.78
2016-04-20T20:53:08.309Z,17.83
2016-04-20T20:54:08.345Z,17.82
2016-04-20T20:55:08.394Z,17.86
2016-04-20T20:56:08.475Z,17.85
2016-04-20T20:57:08.508Z,17.89
2016-04-20T20:58:08.573Z,17.86
2016-04-20T20:59:08.591Z,17.83
2016-04-20T21:00:08.658Z,17.9
2016-04-20T21:01:07.972Z,17.9
2016-04-20T21:02:08.023Z,17.83
2016-04-20T21:03:08.790Z,17.9
2016-04-20T21:04:08.873Z,17.94
2016-04-20T21:05:08.906Z,17.86
2016-04-20T21:06:08.956Z,17.94
2016-04-20T21:07:09.036Z,17.85
2016-04-20T21:08:09.070Z,17.87
2016-04-20T21:09:09.119Z,17.95
2016-04-20T21:10:09.184Z,17.89
2016-04-20T21:11:09.220Z,17.92
2016-04-20T21:12:09.283Z,17.95
2016-04-20T21:13:09.317Z,17.97
2016-04-20T21:14:09.352Z,17.95
2016-04-20T21:15:09.433Z,17.95
2016-04-20T21:16:09.483Z,17.94
2016-04-20T21:17:09.516Z,17.95
2016-04-20T21:18:09.581Z,17.94
2016-04-20T21:19:09.631Z,17.94
2016-04-20T21:20:09.665Z,17.92
2016-04-20T21:21:09.824Z,18.01
2016-04-20T21:22:09.857Z,17.95
2016-04-20T21:23:09.829Z,17.98
2016-04-20T21:24:09.910Z,17.95
2016-04-20T21:25:09.960Z,17.98